sensor_id;sensor_type;location;lat;lon;timestamp;temperature;humidity
54898;DHT22;40800;52.704;6.398;2024-03-06T00:02:07;8.30;99.90
54898;DHT22;40800;52.704;6.398;2024-03-06T00:04:33;8.80;99.90
54898;DHT22;40800;52.704;6.398;2024-03-06T00:06:59;8.30;99.90
54898;DHT22;40800;52.704;6.398;2024-03-06T00:09:25;8.70;99.90
54898;DHT22;40800;52.704;6.398;2024-03-06T00:11:54;8.60;99.90
54898;DHT22;40800;52.704;6.398;2024-03-06T00:14:21;8.90;99.90
54898;DHT22;40800;52.704;6.398;2024-03-06T00:16:50;8.60;99.90
54898;DHT22;40800;52.704;6.398;2024-03-06T00:19:19;8.40;99.90
54898;DHT22;40800;52.704;6.398;2024-03-06T00:21:46;8.80;99.90
54898;DHT22;40800;52.704;6.398;2024-03-06T00:24:12;8.40;99.90
54898;DHT22;40800;52.704;6.398;2024-03-06T00:26:43;8.70;99.90
54898;DHT22;40800;52.704;6.398;2024-03-06T00:29:10;8.20;99.90
54898;DHT22;40800;52.704;6.398;2024-03-06T00:31:36;8.40;99.90
54898;DHT22;40800;52.704;6.398;2024-03-06T00:34:02;8.20;99.90
54898;DHT22;40800;52.704;6.398;2024-03-06T00:36:28;8.60;99.90
54898;DHT22;40800;52.704;6.398;2024-03-06T00:38:53;8.50;99.90
54898;DHT22;40800;52.704;6.398;2024-03-06T00:41:19;8.40;99.90
54898;DHT22;40800;52.704;6.398;2024-03-06T00:43:45;8.20;99.90
54898;DHT22;40800;52.704;6.398;2024-03-06T00:46:11;8.40;99.90
54898;DHT22;40800;52.704;6.398;2024-03-06T00:48:37;8.10;99.90
54898;DHT22;40800;52.704;6.398;2024-03-06T00:51:05;8.50;99.90
54898;DHT22;40800;52.704;6.398;2024-03-06T00:53:32;8.20;99.90
54898;DHT22;40800;52.704;6.398;2024-03-06T00:55:57;8.60;99.90
54898;DHT22;40800;52.704;6.398;2024-03-06T00:58:23;8.10;99.90
54898;DHT22;40800;52.704;6.398;2024-03-06T01:00:49;8.50;99.90
54898;DHT22;40800;52.704;6.398;2024-03-06T01:03:14;8.50;99.90
54898;DHT22;40800;52.704;6.398;2024-03-06T01:05:40;8.40;99.90
54898;DHT22;40800;52.704;6.398;2024-03-06T01:08:05;8.40;99.90
54898;DHT22;40800;52.704;6.398;2024-03-06T01:10:31;8.30;99.90
54898;DHT22;40800;52.704;6.398;2024-03-06T01:12:57;8.00;99.90
54898;DHT22;40800;52.704;6.398;2024-03-06T01:15:22;8.30;99.90
54898;DHT22;40800;52.704;6.398;2024-03-06T01:17:48;8.30;99.90
54898;DHT22;40800;52.704;6.398;2024-03-06T01:20:14;8.30;99.90
54898;DHT22;40800;52.704;6.398;2024-03-06T01:22:40;8.20;99.90
54898;DHT22;40800;52.704;6.398;2024-03-06T01:25:06;8.20;99.90
54898;DHT22;40800;52.704;6.398;2024-03-06T01:27:32;7.90;99.90
54898;DHT22;40800;52.704;6.398;2024-03-06T01:29:58;8.10;99.90
54898;DHT22;40800;52.704;6.398;2024-03-06T01:32:23;7.90;99.90
54898;DHT22;40800;52.704;6.398;2024-03-06T01:34:49;8.20;99.90
54898;DHT22;40800;52.704;6.398;2024-03-06T01:37:15;8.00;99.90
54898;DHT22;40800;52.704;6.398;2024-03-06T01:39:40;8.10;99.90
54898;DHT22;40800;52.704;6.398;2024-03-06T01:42:06;8.20;99.90
54898;DHT22;40800;52.704;6.398;2024-03-06T01:44:32;8.20;99.90
54898;DHT22;40800;52.704;6.398;2024-03-06T01:46:58;8.40;99.90
54898;DHT22;40800;52.704;6.398;2024-03-06T01:49:23;8.10;99.90
54898;DHT22;40800;52.704;6.398;2024-03-06T01:51:52;8.10;99.90
54898;DHT22;40800;52.704;6.398;2024-03-06T01:54:19;7.70;99.90
54898;DHT22;40800;52.704;6.398;2024-03-06T01:56:46;7.70;99.90
54898;DHT22;40800;52.704;6.398;2024-03-06T01:59:13;7.70;99.90
54898;DHT22;40800;52.704;6.398;2024-03-06T02:01:39;7.90;99.90
54898;DHT22;40800;52.704;6.398;2024-03-06T02:04:06;7.80;99.90
54898;DHT22;40800;52.704;6.398;2024-03-06T02:06:35;7.80;99.90
54898;DHT22;40800;52.704;6.398;2024-03-06T02:09:01;7.70;99.90
54898;DHT22;40800;52.704;6.398;2024-03-06T02:11:28;7.90;99.90
54898;DHT22;40800;52.704;6.398;2024-03-06T02:13:55;7.70;99.90
54898;DHT22;40800;52.704;6.398;2024-03-06T02:16:20;7.80;99.90
54898;DHT22;40800;52.704;6.398;2024-03-06T02:18:55;7.80;99.90
54898;DHT22;40800;52.704;6.398;2024-03-06T02:21:23;8.00;99.90
54898;DHT22;40800;52.704;6.398;2024-03-06T02:23:50;7.90;99.90
54898;DHT22;40800;52.704;6.398;2024-03-06T02:26:17;7.80;99.90
54898;DHT22;40800;52.704;6.398;2024-03-06T02:28:50;7.80;99.90
54898;DHT22;40800;52.704;6.398;2024-03-06T02:31:17;7.80;99.90
54898;DHT22;40800;52.704;6.398;2024-03-06T02:33:44;7.70;99.90
54898;DHT22;40800;52.704;6.398;2024-03-06T02:36:13;7.60;99.90
54898;DHT22;40800;52.704;6.398;2024-03-06T02:38:39;7.70;99.90
54898;DHT22;40800;52.704;6.398;2024-03-06T02:41:05;8.00;99.90
54898;DHT22;40800;52.704;6.398;2024-03-06T02:43:32;7.70;99.90
54898;DHT22;40800;52.704;6.398;2024-03-06T02:45:58;7.70;99.90
54898;DHT22;40800;52.704;6.398;2024-03-06T02:48:23;7.80;99.90
54898;DHT22;40800;52.704;6.398;2024-03-06T02:50:49;7.90;99.90
54898;DHT22;40800;52.704;6.398;2024-03-06T02:53:15;7.60;99.90
54898;DHT22;40800;52.704;6.398;2024-03-06T02:55:41;7.60;99.90
54898;DHT22;40800;52.704;6.398;2024-03-06T02:58:06;7.70;99.90
54898;DHT22;40800;52.704;6.398;2024-03-06T03:00:32;7.60;99.90
54898;DHT22;40800;52.704;6.398;2024-03-06T03:02:58;7.80;99.90
54898;DHT22;40800;52.704;6.398;2024-03-06T03:05:23;7.60;99.90
54898;DHT22;40800;52.704;6.398;2024-03-06T03:07:49;7.90;99.90
54898;DHT22;40800;52.704;6.398;2024-03-06T03:10:15;7.80;99.90
54898;DHT22;40800;52.704;6.398;2024-03-06T03:12:41;7.60;99.90
54898;DHT22;40800;52.704;6.398;2024-03-06T03:15:08;7.60;99.90
54898;DHT22;40800;52.704;6.398;2024-03-06T03:17:33;7.80;99.90
54898;DHT22;40800;52.704;6.398;2024-03-06T03:19:59;7.60;99.90
54898;DHT22;40800;52.704;6.398;2024-03-06T03:22:25;7.80;99.90
54898;DHT22;40800;52.704;6.398;2024-03-06T03:24:51;7.60;99.90
54898;DHT22;40800;52.704;6.398;2024-03-06T03:27:16;7.90;99.90
54898;DHT22;40800;52.704;6.398;2024-03-06T03:29:42;7.70;99.90
54898;DHT22;40800;52.704;6.398;2024-03-06T03:32:08;7.80;99.90
54898;DHT22;40800;52.704;6.398;2024-03-06T03:34:36;7.50;99.90
54898;DHT22;40800;52.704;6.398;2024-03-06T03:37:02;7.70;99.90
54898;DHT22;40800;52.704;6.398;2024-03-06T03:39:27;7.60;99.90
54898;DHT22;40800;52.704;6.398;2024-03-06T03:41:53;7.60;99.90
54898;DHT22;40800;52.704;6.398;2024-03-06T03:44:19;7.70;99.90
54898;DHT22;40800;52.704;6.398;2024-03-06T03:46:45;7.80;99.90
54898;DHT22;40800;52.704;6.398;2024-03-06T03:49:11;7.90;99.90
54898;DHT22;40800;52.704;6.398;2024-03-06T03:51:38;7.60;99.90
54898;DHT22;40800;52.704;6.398;2024-03-06T03:54:04;7.60;99.90
54898;DHT22;40800;52.704;6.398;2024-03-06T03:56:30;7.80;99.90
54898;DHT22;40800;52.704;6.398;2024-03-06T03:58:57;7.50;99.90
54898;DHT22;40800;52.704;6.398;2024-03-06T04:01:23;7.60;99.90
54898;DHT22;40800;52.704;6.398;2024-03-06T04:03:49;7.60;99.90
54898;DHT22;40800;52.704;6.398;2024-03-06T04:06:16;7.70;99.90
54898;DHT22;40800;52.704;6.398;2024-03-06T04:08:42;7.70;99.90
54898;DHT22;40800;52.704;6.398;2024-03-06T04:11:08;7.60;99.90
54898;DHT22;40800;52.704;6.398;2024-03-06T04:13:37;7.70;99.90
54898;DHT22;40800;52.704;6.398;2024-03-06T04:16:04;7.60;99.90
54898;DHT22;40800;52.704;6.398;2024-03-06T04:18:31;7.60;99.90
54898;DHT22;40800;52.704;6.398;2024-03-06T04:21:06;7.70;99.90
54898;DHT22;40800;52.704;6.398;2024-03-06T04:23:32;7.70;99.90
54898;DHT22;40800;52.704;6.398;2024-03-06T04:26:02;7.50;99.90
54898;DHT22;40800;52.704;6.398;2024-03-06T04:28:27;7.40;99.90
54898;DHT22;40800;52.704;6.398;2024-03-06T04:30:53;7.60;99.90
54898;DHT22;40800;52.704;6.398;2024-03-06T04:33:19;7.40;99.90
54898;DHT22;40800;52.704;6.398;2024-03-06T04:35:45;7.70;99.90
54898;DHT22;40800;52.704;6.398;2024-03-06T04:38:11;7.70;99.90
54898;DHT22;40800;52.704;6.398;2024-03-06T04:40:36;7.80;99.90
54898;DHT22;40800;52.704;6.398;2024-03-06T04:43:02;7.60;99.90
54898;DHT22;40800;52.704;6.398;2024-03-06T04:45:28;7.60;99.90
54898;DHT22;40800;52.704;6.398;2024-03-06T04:47:54;7.60;99.90
54898;DHT22;40800;52.704;6.398;2024-03-06T04:50:20;7.50;99.90
54898;DHT22;40800;52.704;6.398;2024-03-06T04:52:46;7.80;99.90
54898;DHT22;40800;52.704;6.398;2024-03-06T04:55:11;7.50;99.90
54898;DHT22;40800;52.704;6.398;2024-03-06T04:57:38;7.50;99.90
54898;DHT22;40800;52.704;6.398;2024-03-06T05:00:06;7.60;99.90
54898;DHT22;40800;52.704;6.398;2024-03-06T05:02:33;7.40;99.90
54898;DHT22;40800;52.704;6.398;2024-03-06T05:05:00;7.40;99.90
54898;DHT22;40800;52.704;6.398;2024-03-06T05:07:29;7.70;99.90
54898;DHT22;40800;52.704;6.398;2024-03-06T05:09:56;7.50;99.90
54898;DHT22;40800;52.704;6.398;2024-03-06T05:12:23;7.60;99.90
54898;DHT22;40800;52.704;6.398;2024-03-06T05:14:49;7.80;99.90
54898;DHT22;40800;52.704;6.398;2024-03-06T05:17:15;7.70;99.90
54898;DHT22;40800;52.704;6.398;2024-03-06T05:19:40;7.70;99.90
54898;DHT22;40800;52.704;6.398;2024-03-06T05:22:06;7.80;99.90
54898;DHT22;40800;52.704;6.398;2024-03-06T05:24:32;7.60;99.90
54898;DHT22;40800;52.704;6.398;2024-03-06T05:26:57;7.80;99.90
54898;DHT22;40800;52.704;6.398;2024-03-06T05:29:23;7.60;99.90
54898;DHT22;40800;52.704;6.398;2024-03-06T05:31:49;7.50;99.90
54898;DHT22;40800;52.704;6.398;2024-03-06T05:34:14;7.50;99.90
54898;DHT22;40800;52.704;6.398;2024-03-06T05:36:40;7.60;99.90
54898;DHT22;40800;52.704;6.398;2024-03-06T05:39:06;7.70;99.90
54898;DHT22;40800;52.704;6.398;2024-03-06T05:41:38;7.60;99.90
54898;DHT22;40800;52.704;6.398;2024-03-06T05:44:05;7.80;99.90
54898;DHT22;40800;52.704;6.398;2024-03-06T05:46:31;7.60;99.90
54898;DHT22;40800;52.704;6.398;2024-03-06T05:48:57;7.50;99.90
54898;DHT22;40800;52.704;6.398;2024-03-06T05:51:23;7.50;99.90
54898;DHT22;40800;52.704;6.398;2024-03-06T05:53:48;7.70;99.90
54898;DHT22;40800;52.704;6.398;2024-03-06T05:56:14;7.50;99.90
54898;DHT22;40800;52.704;6.398;2024-03-06T05:58:40;7.80;99.90
54898;DHT22;40800;52.704;6.398;2024-03-06T06:01:05;7.50;99.90
54898;DHT22;40800;52.704;6.398;2024-03-06T06:03:31;7.80;99.90
54898;DHT22;40800;52.704;6.398;2024-03-06T06:05:57;7.70;99.90
54898;DHT22;40800;52.704;6.398;2024-03-06T06:08:23;7.80;99.90
54898;DHT22;40800;52.704;6.398;2024-03-06T06:10:49;7.80;99.90
54898;DHT22;40800;52.704;6.398;2024-03-06T06:13:18;7.70;99.90
54898;DHT22;40800;52.704;6.398;2024-03-06T06:15:43;7.80;99.90
54898;DHT22;40800;52.704;6.398;2024-03-06T06:18:09;7.70;99.90
54898;DHT22;40800;52.704;6.398;2024-03-06T06:20:35;7.50;99.90
54898;DHT22;40800;52.704;6.398;2024-03-06T06:23:01;7.50;99.90
54898;DHT22;40800;52.704;6.398;2024-03-06T06:25:27;7.50;99.90
54898;DHT22;40800;52.704;6.398;2024-03-06T06:27:52;7.70;99.90
54898;DHT22;40800;52.704;6.398;2024-03-06T06:30:18;7.70;99.90
54898;DHT22;40800;52.704;6.398;2024-03-06T06:32:44;7.80;99.90
54898;DHT22;40800;52.704;6.398;2024-03-06T06:35:10;7.60;99.90
54898;DHT22;40800;52.704;6.398;2024-03-06T06:37:37;7.60;99.90
54898;DHT22;40800;52.704;6.398;2024-03-06T06:40:03;7.60;99.90
54898;DHT22;40800;52.704;6.398;2024-03-06T06:42:35;7.50;99.90
54898;DHT22;40800;52.704;6.398;2024-03-06T06:45:04;7.80;99.90
54898;DHT22;40800;52.704;6.398;2024-03-06T06:47:31;7.70;99.90
54898;DHT22;40800;52.704;6.398;2024-03-06T06:49:57;7.60;99.90
54898;DHT22;40800;52.704;6.398;2024-03-06T06:52:22;7.80;99.90
54898;DHT22;40800;52.704;6.398;2024-03-06T06:54:48;7.70;99.90
54898;DHT22;40800;52.704;6.398;2024-03-06T06:57:15;7.70;99.90
54898;DHT22;40800;52.704;6.398;2024-03-06T06:59:41;7.90;99.90
54898;DHT22;40800;52.704;6.398;2024-03-06T07:02:06;7.90;99.90
54898;DHT22;40800;52.704;6.398;2024-03-06T07:04:32;7.80;99.90
54898;DHT22;40800;52.704;6.398;2024-03-06T07:06:57;7.60;99.90
54898;DHT22;40800;52.704;6.398;2024-03-06T07:09:23;7.90;99.90
54898;DHT22;40800;52.704;6.398;2024-03-06T07:11:48;7.80;99.90
54898;DHT22;40800;52.704;6.398;2024-03-06T07:14:15;7.80;99.90
54898;DHT22;40800;52.704;6.398;2024-03-06T07:16:44;7.80;99.90
54898;DHT22;40800;52.704;6.398;2024-03-06T07:19:11;7.80;99.90
54898;DHT22;40800;52.704;6.398;2024-03-06T07:21:37;8.00;99.90
54898;DHT22;40800;52.704;6.398;2024-03-06T07:24:03;7.80;99.90
54898;DHT22;40800;52.704;6.398;2024-03-06T07:26:31;7.90;99.90
54898;DHT22;40800;52.704;6.398;2024-03-06T07:28:57;8.00;99.90
54898;DHT22;40800;52.704;6.398;2024-03-06T07:31:23;8.20;99.90
54898;DHT22;40800;52.704;6.398;2024-03-06T07:33:49;8.00;99.90
54898;DHT22;40800;52.704;6.398;2024-03-06T07:36:15;8.00;99.90
54898;DHT22;40800;52.704;6.398;2024-03-06T07:38:42;8.20;99.90
54898;DHT22;40800;52.704;6.398;2024-03-06T07:41:07;8.10;99.90
54898;DHT22;40800;52.704;6.398;2024-03-06T07:43:33;8.00;99.90
54898;DHT22;40800;52.704;6.398;2024-03-06T07:45:59;8.20;99.90
54898;DHT22;40800;52.704;6.398;2024-03-06T07:48:25;8.10;99.90
54898;DHT22;40800;52.704;6.398;2024-03-06T07:50:50;8.10;99.90
54898;DHT22;40800;52.704;6.398;2024-03-06T07:53:16;8.20;99.90
54898;DHT22;40800;52.704;6.398;2024-03-06T07:55:42;8.10;99.90
54898;DHT22;40800;52.704;6.398;2024-03-06T07:58:07;8.40;99.90
54898;DHT22;40800;52.704;6.398;2024-03-06T08:00:36;9.80;99.90
54898;DHT22;40800;52.704;6.398;2024-03-06T08:03:02;7.60;99.90
54898;DHT22;40800;52.704;6.398;2024-03-06T08:05:28;8.30;99.90
54898;DHT22;40800;52.704;6.398;2024-03-06T08:07:54;8.50;99.90
54898;DHT22;40800;52.704;6.398;2024-03-06T08:10:19;8.50;99.90
54898;DHT22;40800;52.704;6.398;2024-03-06T08:12:45;8.30;99.90
54898;DHT22;40800;52.704;6.398;2024-03-06T08:15:14;8.30;99.90
54898;DHT22;40800;52.704;6.398;2024-03-06T08:17:42;8.50;99.90
54898;DHT22;40800;52.704;6.398;2024-03-06T08:20:09;8.50;99.90
54898;DHT22;40800;52.704;6.398;2024-03-06T08:22:36;8.50;99.90
54898;DHT22;40800;52.704;6.398;2024-03-06T08:25:06;8.40;99.90
54898;DHT22;40800;52.704;6.398;2024-03-06T08:27:33;8.50;99.90
54898;DHT22;40800;52.704;6.398;2024-03-06T08:29:59;8.40;99.90
54898;DHT22;40800;52.704;6.398;2024-03-06T08:32:24;8.50;99.90
54898;DHT22;40800;52.704;6.398;2024-03-06T08:34:50;9.60;99.90
54898;DHT22;40800;52.704;6.398;2024-03-06T08:37:15;8.60;99.90
54898;DHT22;40800;52.704;6.398;2024-03-06T08:39:41;8.50;99.90
54898;DHT22;40800;52.704;6.398;2024-03-06T08:42:06;8.50;99.90
54898;DHT22;40800;52.704;6.398;2024-03-06T08:44:32;8.60;99.90
54898;DHT22;40800;52.704;6.398;2024-03-06T08:46:58;8.50;99.90
54898;DHT22;40800;52.704;6.398;2024-03-06T08:49:23;8.60;99.90
54898;DHT22;40800;52.704;6.398;2024-03-06T08:51:49;8.50;99.90
54898;DHT22;40800;52.704;6.398;2024-03-06T08:54:14;8.50;99.90
54898;DHT22;40800;52.704;6.398;2024-03-06T08:56:42;8.70;99.90
54898;DHT22;40800;52.704;6.398;2024-03-06T08:59:09;8.50;99.90
54898;DHT22;40800;52.704;6.398;2024-03-06T09:01:34;8.50;99.90
54898;DHT22;40800;52.704;6.398;2024-03-06T09:04:00;8.70;99.90
54898;DHT22;40800;52.704;6.398;2024-03-06T09:06:25;8.90;99.90
54898;DHT22;40800;52.704;6.398;2024-03-06T09:08:52;8.80;99.90
54898;DHT22;40800;52.704;6.398;2024-03-06T09:11:18;10.10;99.90
54898;DHT22;40800;52.704;6.398;2024-03-06T09:13:43;8.80;99.90
54898;DHT22;40800;52.704;6.398;2024-03-06T09:16:09;8.80;99.90
54898;DHT22;40800;52.704;6.398;2024-03-06T09:18:34;8.70;99.90
54898;DHT22;40800;52.704;6.398;2024-03-06T09:21:00;8.80;99.90
54898;DHT22;40800;52.704;6.398;2024-03-06T09:23:27;8.90;99.90
54898;DHT22;40800;52.704;6.398;2024-03-06T09:25:55;8.90;99.90
54898;DHT22;40800;52.704;6.398;2024-03-06T09:28:20;8.80;99.90
54898;DHT22;40800;52.704;6.398;2024-03-06T09:30:48;8.80;99.90
54898;DHT22;40800;52.704;6.398;2024-03-06T09:33:13;8.90;99.90
54898;DHT22;40800;52.704;6.398;2024-03-06T09:35:39;8.90;99.90
54898;DHT22;40800;52.704;6.398;2024-03-06T09:38:11;9.20;99.90
54898;DHT22;40800;52.704;6.398;2024-03-06T09:40:36;9.10;99.90
54898;DHT22;40800;52.704;6.398;2024-03-06T09:43:02;9.00;99.90
54898;DHT22;40800;52.704;6.398;2024-03-06T09:45:28;9.20;99.90
54898;DHT22;40800;52.704;6.398;2024-03-06T09:47:54;9.40;99.90
54898;DHT22;40800;52.704;6.398;2024-03-06T09:50:23;9.20;99.90
54898;DHT22;40800;52.704;6.398;2024-03-06T09:52:51;9.20;99.90
54898;DHT22;40800;52.704;6.398;2024-03-06T09:55:19;9.20;99.90
54898;DHT22;40800;52.704;6.398;2024-03-06T09:57:45;9.40;99.90
54898;DHT22;40800;52.704;6.398;2024-03-06T10:00:11;9.20;99.90
54898;DHT22;40800;52.704;6.398;2024-03-06T10:02:57;9.30;99.90
54898;DHT22;40800;52.704;6.398;2024-03-06T10:05:25;9.80;99.90
54898;DHT22;40800;52.704;6.398;2024-03-06T10:07:51;9.50;99.90
54898;DHT22;40800;52.704;6.398;2024-03-06T10:10:18;9.60;99.90
54898;DHT22;40800;52.704;6.398;2024-03-06T10:12:47;9.60;99.90
54898;DHT22;40800;52.704;6.398;2024-03-06T10:15:13;9.70;99.90
54898;DHT22;40800;52.704;6.398;2024-03-06T10:17:39;9.60;99.90
54898;DHT22;40800;52.704;6.398;2024-03-06T10:20:18;9.90;99.90
54898;DHT22;40800;52.704;6.398;2024-03-06T10:22:52;9.80;99.90
54898;DHT22;40800;52.704;6.398;2024-03-06T10:25:21;9.70;99.90
54898;DHT22;40800;52.704;6.398;2024-03-06T10:28:07;9.90;99.90
54898;DHT22;40800;52.704;6.398;2024-03-06T10:30:37;10.10;99.90
54898;DHT22;40800;52.704;6.398;2024-03-06T10:33:06;9.90;99.90
54898;DHT22;40800;52.704;6.398;2024-03-06T10:35:32;9.90;99.90
54898;DHT22;40800;52.704;6.398;2024-03-06T10:38:00;10.00;99.90
54898;DHT22;40800;52.704;6.398;2024-03-06T10:40:33;10.10;99.90
54898;DHT22;40800;52.704;6.398;2024-03-06T10:43:00;10.20;99.90
54898;DHT22;40800;52.704;6.398;2024-03-06T10:45:47;10.00;99.90
54898;DHT22;40800;52.704;6.398;2024-03-06T10:48:18;10.20;99.90
54898;DHT22;40800;52.704;6.398;2024-03-06T10:50:45;10.30;99.90
54898;DHT22;40800;52.704;6.398;2024-03-06T10:53:16;10.10;99.90
54898;DHT22;40800;52.704;6.398;2024-03-06T10:55:45;10.20;99.90
54898;DHT22;40800;52.704;6.398;2024-03-06T10:58:11;10.40;99.90
54898;DHT22;40800;52.704;6.398;2024-03-06T11:00:42;10.50;99.90
54898;DHT22;40800;52.704;6.398;2024-03-06T11:03:09;10.50;99.90
54898;DHT22;40800;52.704;6.398;2024-03-06T11:05:38;10.50;99.90
54898;DHT22;40800;52.704;6.398;2024-03-06T11:08:07;10.40;99.90
54898;DHT22;40800;52.704;6.398;2024-03-06T11:10:34;10.60;99.90
54898;DHT22;40800;52.704;6.398;2024-03-06T11:13:23;10.50;99.90
54898;DHT22;40800;52.704;6.398;2024-03-06T11:15:51;10.80;99.90
54898;DHT22;40800;52.704;6.398;2024-03-06T11:18:41;10.80;99.90
54898;DHT22;40800;52.704;6.398;2024-03-06T11:26:46;10.90;99.90
54898;DHT22;40800;52.704;6.398;2024-03-06T11:29:13;11.20;99.90
54898;DHT22;40800;52.704;6.398;2024-03-06T11:31:38;11.40;99.90
54898;DHT22;40800;52.704;6.398;2024-03-06T11:34:04;11.40;99.90
54898;DHT22;40800;52.704;6.398;2024-03-06T11:36:30;12.00;99.90
54898;DHT22;40800;52.704;6.398;2024-03-06T11:38:56;11.70;99.90
54898;DHT22;40800;52.704;6.398;2024-03-06T11:41:24;11.90;99.90
54898;DHT22;40800;52.704;6.398;2024-03-06T11:43:51;11.90;99.90
54898;DHT22;40800;52.704;6.398;2024-03-06T11:46:19;12.10;99.90
54898;DHT22;40800;52.704;6.398;2024-03-06T11:48:55;12.20;99.90
54898;DHT22;40800;52.704;6.398;2024-03-06T11:51:22;12.50;99.90
54898;DHT22;40800;52.704;6.398;2024-03-06T11:53:52;12.80;99.90
54898;DHT22;40800;52.704;6.398;2024-03-06T11:56:20;13.20;99.90
54898;DHT22;40800;52.704;6.398;2024-03-06T11:58:47;13.30;99.90
54898;DHT22;40800;52.704;6.398;2024-03-06T12:01:14;13.50;99.90
54898;DHT22;40800;52.704;6.398;2024-03-06T12:03:41;13.70;99.90
54898;DHT22;40800;52.704;6.398;2024-03-06T12:06:07;13.90;99.90
54898;DHT22;40800;52.704;6.398;2024-03-06T12:08:33;14.10;99.90
54898;DHT22;40800;52.704;6.398;2024-03-06T12:11:00;14.10;99.90
54898;DHT22;40800;52.704;6.398;2024-03-06T12:13:25;14.10;99.90
54898;DHT22;40800;52.704;6.398;2024-03-06T12:15:51;14.20;99.90
54898;DHT22;40800;52.704;6.398;2024-03-06T12:18:19;14.50;99.90
54898;DHT22;40800;52.704;6.398;2024-03-06T12:20:45;14.60;99.90
54898;DHT22;40800;52.704;6.398;2024-03-06T12:23:21;14.50;99.90
54898;DHT22;40800;52.704;6.398;2024-03-06T12:26:08;14.60;99.90
54898;DHT22;40800;52.704;6.398;2024-03-06T12:28:36;14.60;99.90
54898;DHT22;40800;52.704;6.398;2024-03-06T12:31:03;14.70;99.90
54898;DHT22;40800;52.704;6.398;2024-03-06T12:33:28;14.70;99.90
54898;DHT22;40800;52.704;6.398;2024-03-06T12:36:05;14.60;99.90
54898;DHT22;40800;52.704;6.398;2024-03-06T12:38:31;14.70;99.90
54898;DHT22;40800;52.704;6.398;2024-03-06T12:40:57;14.70;99.90
54898;DHT22;40800;52.704;6.398;2024-03-06T12:43:23;14.90;99.90
54898;DHT22;40800;52.704;6.398;2024-03-06T12:45:49;15.10;99.90
54898;DHT22;40800;52.704;6.398;2024-03-06T12:48:15;15.30;99.90
54898;DHT22;40800;52.704;6.398;2024-03-06T12:50:40;15.60;99.90
54898;DHT22;40800;52.704;6.398;2024-03-06T12:53:08;15.40;99.90
54898;DHT22;40800;52.704;6.398;2024-03-06T12:55:34;15.20;99.90
54898;DHT22;40800;52.704;6.398;2024-03-06T12:58:01;15.30;99.90
54898;DHT22;40800;52.704;6.398;2024-03-06T13:00:28;15.60;99.90
54898;DHT22;40800;52.704;6.398;2024-03-06T13:02:53;15.60;99.90
54898;DHT22;40800;52.704;6.398;2024-03-06T13:05:19;15.80;99.90
54898;DHT22;40800;52.704;6.398;2024-03-06T13:07:45;15.90;99.90
54898;DHT22;40800;52.704;6.398;2024-03-06T13:10:11;16.10;99.90
54898;DHT22;40800;52.704;6.398;2024-03-06T13:12:38;16.30;99.90
54898;DHT22;40800;52.704;6.398;2024-03-06T13:15:04;16.60;99.90
54898;DHT22;40800;52.704;6.398;2024-03-06T13:17:32;16.70;99.90
54898;DHT22;40800;52.704;6.398;2024-03-06T13:19:58;16.70;99.90
54898;DHT22;40800;52.704;6.398;2024-03-06T13:22:23;16.90;99.90
54898;DHT22;40800;52.704;6.398;2024-03-06T13:24:49;16.80;99.90
54898;DHT22;40800;52.704;6.398;2024-03-06T13:27:16;16.90;99.90
54898;DHT22;40800;52.704;6.398;2024-03-06T13:29:42;16.70;99.90
54898;DHT22;40800;52.704;6.398;2024-03-06T13:32:08;16.70;99.90
54898;DHT22;40800;52.704;6.398;2024-03-06T13:34:33;16.70;99.90
54898;DHT22;40800;52.704;6.398;2024-03-06T13:36:59;16.60;99.90
54898;DHT22;40800;52.704;6.398;2024-03-06T13:39:25;16.70;99.90
54898;DHT22;40800;52.704;6.398;2024-03-06T13:41:51;16.70;99.90
54898;DHT22;40800;52.704;6.398;2024-03-06T13:44:18;16.50;99.90
54898;DHT22;40800;52.704;6.398;2024-03-06T13:46:44;16.30;99.90
54898;DHT22;40800;52.704;6.398;2024-03-06T13:49:39;16.40;99.90
54898;DHT22;40800;52.704;6.398;2024-03-06T13:52:06;16.60;99.90
54898;DHT22;40800;52.704;6.398;2024-03-06T13:54:37;16.60;99.90
54898;DHT22;40800;52.704;6.398;2024-03-06T13:57:03;16.40;99.90
54898;DHT22;40800;52.704;6.398;2024-03-06T13:59:32;16.50;99.90
54898;DHT22;40800;52.704;6.398;2024-03-06T14:01:58;16.40;99.90
54898;DHT22;40800;52.704;6.398;2024-03-06T14:04:24;16.50;99.90
54898;DHT22;40800;52.704;6.398;2024-03-06T14:06:50;17.30;99.90
54898;DHT22;40800;52.704;6.398;2024-03-06T14:09:16;17.50;99.90
54898;DHT22;40800;52.704;6.398;2024-03-06T14:11:41;17.60;99.90
54898;DHT22;40800;52.704;6.398;2024-03-06T14:14:07;17.40;99.90
54898;DHT22;40800;52.704;6.398;2024-03-06T14:16:34;17.00;99.90
54898;DHT22;40800;52.704;6.398;2024-03-06T14:19:00;16.80;99.90
54898;DHT22;40800;52.704;6.398;2024-03-06T14:21:26;16.40;99.90
54898;DHT22;40800;52.704;6.398;2024-03-06T14:23:52;16.00;99.90
54898;DHT22;40800;52.704;6.398;2024-03-06T14:26:18;15.70;99.90
54898;DHT22;40800;52.704;6.398;2024-03-06T14:28:43;15.50;49.10
54898;DHT22;40800;52.704;6.398;2024-03-06T14:31:09;15.30;99.90
54898;DHT22;40800;52.704;6.398;2024-03-06T14:33:40;15.30;60.70
54898;DHT22;40800;52.704;6.398;2024-03-06T14:36:06;15.10;99.90
54898;DHT22;40800;52.704;6.398;2024-03-06T14:38:32;15.00;99.90
54898;DHT22;40800;52.704;6.398;2024-03-06T14:40:58;14.80;1.00
54898;DHT22;40800;52.704;6.398;2024-03-06T14:43:24;14.70;99.90
54898;DHT22;40800;52.704;6.398;2024-03-06T14:45:50;14.80;99.90
54898;DHT22;40800;52.704;6.398;2024-03-06T14:48:16;14.80;99.90
54898;DHT22;40800;52.704;6.398;2024-03-06T14:50:43;14.80;99.90
54898;DHT22;40800;52.704;6.398;2024-03-06T14:53:08;14.90;99.90
54898;DHT22;40800;52.704;6.398;2024-03-06T14:55:34;14.90;74.80
54898;DHT22;40800;52.704;6.398;2024-03-06T14:58:00;15.00;1.00
54898;DHT22;40800;52.704;6.398;2024-03-06T15:00:26;15.10;1.00
54898;DHT22;40800;52.704;6.398;2024-03-06T15:02:51;15.10;1.00
54898;DHT22;40800;52.704;6.398;2024-03-06T15:05:17;15.20;1.00
54898;DHT22;40800;52.704;6.398;2024-03-06T15:07:42;15.30;99.90
54898;DHT22;40800;52.704;6.398;2024-03-06T15:10:08;15.20;99.90
54898;DHT22;40800;52.704;6.398;2024-03-06T15:12:35;15.30;99.90
54898;DHT22;40800;52.704;6.398;2024-03-06T15:15:03;15.40;99.90
54898;DHT22;40800;52.704;6.398;2024-03-06T15:17:32;15.50;99.90
54898;DHT22;40800;52.704;6.398;2024-03-06T15:19:58;15.50;99.90
54898;DHT22;40800;52.704;6.398;2024-03-06T15:22:24;15.40;86.20
54898;DHT22;40800;52.704;6.398;2024-03-06T15:24:50;15.50;12.00
54898;DHT22;40800;52.704;6.398;2024-03-06T15:27:16;15.90;4.40
54898;DHT22;40800;52.704;6.398;2024-03-06T15:29:42;16.00;1.90
54898;DHT22;40800;52.704;6.398;2024-03-06T15:32:09;16.10;1.00
54898;DHT22;40800;52.704;6.398;2024-03-06T15:34:36;16.20;1.00
54898;DHT22;40800;52.704;6.398;2024-03-06T15:37:02;16.30;1.00
54898;DHT22;40800;52.704;6.398;2024-03-06T15:39:28;16.50;1.00
54898;DHT22;40800;52.704;6.398;2024-03-06T15:41:54;16.60;1.00
54898;DHT22;40800;52.704;6.398;2024-03-06T15:44:21;16.50;99.90
54898;DHT22;40800;52.704;6.398;2024-03-06T15:46:47;16.30;99.90